sensor_id;sensor_type;location;lat;lon;timestamp;temperature;humidity
64561;DHT22;50960;46.838;16.838;2023-03-14T19:48:47;12.80;71.80
64561;DHT22;50960;46.838;16.838;2023-03-14T19:51:15;12.50;71.80
64561;DHT22;50960;46.838;16.838;2023-03-14T19:53:42;12.50;72.00
64561;DHT22;50960;46.838;16.838;2023-03-14T19:56:10;12.50;71.90
64561;DHT22;50960;46.838;16.838;2023-03-14T19:58:38;12.50;71.90
64561;DHT22;50960;46.838;16.838;2023-03-14T20:01:05;12.50;72.10
64561;DHT22;50960;46.838;16.838;2023-03-14T20:03:36;12.50;71.90
64561;DHT22;50960;46.838;16.838;2023-03-14T20:06:07;12.50;71.70
64561;DHT22;50960;46.838;16.838;2023-03-14T20:08:34;12.50;71.70
64561;DHT22;50960;46.838;16.838;2023-03-14T20:11:03;12.60;71.70
64561;DHT22;50960;46.838;16.838;2023-03-14T20:13:30;12.50;72.10
64561;DHT22;50960;46.838;16.838;2023-03-14T20:15:56;12.50;72.20
64561;DHT22;50960;46.838;16.838;2023-03-14T20:18:23;12.30;73.30
64561;DHT22;50960;46.838;16.838;2023-03-14T20:20:50;12.10;74.40
64561;DHT22;50960;46.838;16.838;2023-03-14T20:23:17;12.10;75.10
64561;DHT22;50960;46.838;16.838;2023-03-14T20:25:43;12.00;75.20
64561;DHT22;50960;46.838;16.838;2023-03-14T20:28:17;12.00;76.90
64561;DHT22;50960;46.838;16.838;2023-03-14T20:30:43;11.90;76.40
64561;DHT22;50960;46.838;16.838;2023-03-14T20:33:10;11.80;76.70
64561;DHT22;50960;46.838;16.838;2023-03-14T20:35:38;11.70;77.20
64561;DHT22;50960;46.838;16.838;2023-03-14T20:38:04;11.70;78.20
64561;DHT22;50960;46.838;16.838;2023-03-14T20:40:31;11.70;80.00
64561;DHT22;50960;46.838;16.838;2023-03-14T20:42:58;11.60;79.70
64561;DHT22;50960;46.838;16.838;2023-03-14T20:45:25;11.50;80.40
64561;DHT22;50960;46.838;16.838;2023-03-14T20:47:51;11.50;81.40
64561;DHT22;50960;46.838;16.838;2023-03-14T20:50:18;11.50;81.70
64561;DHT22;50960;46.838;16.838;2023-03-14T20:52:44;11.50;81.90
64561;DHT22;50960;46.838;16.838;2023-03-14T20:55:11;11.60;81.80
64561;DHT22;50960;46.838;16.838;2023-03-14T20:57:37;11.60;81.70
64561;DHT22;50960;46.838;16.838;2023-03-14T21:00:04;11.40;81.10
64561;DHT22;50960;46.838;16.838;2023-03-14T21:02:33;11.40;82.20
64561;DHT22;50960;46.838;16.838;2023-03-14T21:05:00;11.50;81.70
64561;DHT22;50960;46.838;16.838;2023-03-14T21:07:29;11.60;81.50
64561;DHT22;50960;46.838;16.838;2023-03-14T21:09:56;11.60;81.60
64561;DHT22;50960;46.838;16.838;2023-03-14T21:12:22;11.60;81.20
64561;DHT22;50960;46.838;16.838;2023-03-14T21:14:48;11.60;82.10
64561;DHT22;50960;46.838;16.838;2023-03-14T21:17:15;11.70;80.70
64561;DHT22;50960;46.838;16.838;2023-03-14T21:19:41;11.80;80.90
64561;DHT22;50960;46.838;16.838;2023-03-14T21:22:10;11.70;80.70
64561;DHT22;50960;46.838;16.838;2023-03-14T21:24:43;11.70;80.80
64561;DHT22;50960;46.838;16.838;2023-03-14T21:27:10;11.70;80.90
64561;DHT22;50960;46.838;16.838;2023-03-14T21:29:37;11.70;80.90
64561;DHT22;50960;46.838;16.838;2023-03-14T21:32:04;11.70;80.20
64561;DHT22;50960;46.838;16.838;2023-03-14T21:34:32;11.70;80.10
64561;DHT22;50960;46.838;16.838;2023-03-14T21:36:58;11.60;80.40
64561;DHT22;50960;46.838;16.838;2023-03-14T21:39:24;11.60;80.40
64561;DHT22;50960;46.838;16.838;2023-03-14T21:41:51;11.60;80.80
64561;DHT22;50960;46.838;16.838;2023-03-14T21:44:17;11.60;81.50
64561;DHT22;50960;46.838;16.838;2023-03-14T21:46:45;11.60;81.90
64561;DHT22;50960;46.838;16.838;2023-03-14T21:49:16;11.60;82.10
64561;DHT22;50960;46.838;16.838;2023-03-14T21:51:48;11.60;82.30
